createdAt,value
2022-11-29T00:01:09.301Z,7.64
2022-11-29T00:04:34.521Z,7.66
2022-11-29T00:07:59.739Z,7.69
2022-11-29T00:11:24.991Z,7.7
2022-11-29T00:14:50.176Z,7.69
2022-11-29T00:18:15.394Z,7.71
2022-11-29T00:21:40.611Z,7.72
2022-11-29T00:25:05.815Z,7.75
2022-11-29T00:28:31.074Z,7.79
2022-11-29T00:31:56.258Z,7.82
2022-11-29T00:35:21.499Z,7.79
2022-11-29T00:38:46.738Z,7.79
2022-11-29T00:42:11.937Z,7.79
2022-11-29T00:45:37.229Z,7.81
2022-11-29T00:49:02.389Z,7.76
2022-11-29T00:52:27.611Z,7.71
2022-11-29T00:55:52.811Z,7.75
2022-11-29T00:59:18.052Z,7.79
2022-11-29T01:02:43.323Z,7.78
2022-11-29T01:06:08.496Z,7.68
2022-11-29T01:09:33.705Z,7.65
2022-11-29T01:12:58.932Z,7.62
2022-11-29T01:16:24.196Z,7.59
2022-11-29T01:19:50.891Z,7.64
2022-11-29T01:23:14.590Z,7.66
2022-11-29T01:26:39.814Z,7.67
2022-11-29T01:30:05.014Z,7.72
2022-11-29T01:33:30.240Z,7.75
2022-11-29T01:36:55.568Z,7.8
2022-11-29T01:40:20.672Z,7.88
2022-11-29T01:43:45.890Z,7.93
2022-11-29T01:47:11.096Z,7.97
2022-11-29T01:50:36.317Z,8
2022-11-29T01:54:01.549Z,8.06
2022-11-29T01:57:26.744Z,8.08
2022-11-29T02:00:52.011Z,8.1
2022-11-29T02:04:17.170Z,8.1
2022-11-29T02:07:42.432Z,8.09
2022-11-29T02:11:07.622Z,8.1
2022-11-29T02:14:32.841Z,8.08
2022-11-29T02:17:58.058Z,8.09
2022-11-29T02:21:23.287Z,8.06
2022-11-29T02:24:48.486Z,8.07
2022-11-29T02:28:13.732Z,8.12
2022-11-29T02:31:38.913Z,8.16
2022-11-29T02:35:04.136Z,8.17
2022-11-29T02:38:29.359Z,8.18
2022-11-29T02:41:54.565Z,8.18
2022-11-29T02:45:19.817Z,8.17
2022-11-29T02:48:45.017Z,8.16
2022-11-29T02:52:10.223Z,8.17
2022-11-29T02:55:35.459Z,8.11
2022-11-29T02:59:00.707Z,8.09
2022-11-29T03:02:26.008Z,8.06
2022-11-29T03:05:51.149Z,8.09
2022-11-29T03:09:16.356Z,8.1
2022-11-29T03:12:41.570Z,8.1
2022-11-29T03:16:06.793Z,8.11
2022-11-29T03:19:31.989Z,8.1
2022-11-29T03:22:57.176Z,8.1
2022-11-29T03:26:22.374Z,8.11
2022-11-29T03:29:47.586Z,8.12
2022-11-29T03:33:12.821Z,8.15
2022-11-29T03:36:38.038Z,8.17
2022-11-29T03:40:03.255Z,8.16
2022-11-29T03:43:28.471Z,8.17
2022-11-29T03:46:53.665Z,8.16
2022-11-29T03:50:18.879Z,8.16
2022-11-29T03:53:44.132Z,8.12
2022-11-29T03:57:09.306Z,8.08
2022-11-29T04:00:34.522Z,8.06
2022-11-29T04:03:59.726Z,8.06
2022-11-29T04:07:24.974Z,8.04
2022-11-29T04:10:50.196Z,8.04
2022-11-29T04:14:15.391Z,8
2022-11-29T04:17:40.599Z,7.98
2022-11-29T04:21:05.805Z,7.96
2022-11-29T04:24:31.011Z,7.94
2022-11-29T04:27:56.254Z,7.95
2022-11-29T04:31:21.459Z,7.95
2022-11-29T04:34:47.033Z,7.98
2022-11-29T04:38:11.902Z,8
2022-11-29T04:41:37.098Z,8.02
2022-11-29T04:45:02.353Z,8.02
2022-11-29T04:48:27.525Z,7.98
2022-11-29T04:51:52.719Z,7.96
2022-11-29T04:55:23.916Z,7.96
2022-11-29T04:58:43.141Z,7.94
2022-11-29T05:02:08.378Z,7.93
2022-11-29T05:05:33.600Z,7.9
2022-11-29T05:08:58.829Z,7.88
2022-11-29T05:12:25.077Z,7.85
2022-11-29T05:15:52.862Z,7.81
2022-11-29T05:19:18.458Z,7.76
2022-11-29T05:22:43.663Z,7.74
2022-11-29T05:26:08.893Z,7.75
2022-11-29T05:29:34.121Z,7.76
2022-11-29T05:32:59.369Z,7.78
2022-11-29T05:36:24.590Z,7.81
2022-11-29T05:39:49.775Z,7.84
2022-11-29T05:43:14.987Z,7.85
2022-11-29T05:46:40.251Z,7.84
2022-11-29T05:50:05.413Z,7.8
2022-11-29T05:53:30.637Z,7.82
2022-11-29T05:56:55.842Z,7.83
2022-11-29T06:00:21.127Z,7.82
2022-11-29T06:03:46.340Z,7.82
2022-11-29T06:07:11.529Z,7.83
2022-11-29T06:10:36.764Z,7.82
2022-11-29T06:14:01.928Z,7.79
2022-11-29T06:17:27.138Z,7.77
2022-11-29T06:20:52.367Z,7.74
2022-11-29T06:24:20.514Z,7.72
2022-11-29T06:27:42.819Z,7.72
2022-11-29T06:31:08.008Z,7.72
2022-11-29T06:34:33.234Z,7.72
2022-11-29T06:37:58.475Z,7.71
2022-11-29T06:41:23.659Z,7.71
2022-11-29T06:44:48.894Z,7.74
2022-11-29T06:48:14.084Z,7.75
2022-11-29T06:51:39.298Z,7.77
2022-11-29T06:55:04.519Z,7.81
2022-11-29T06:58:34.550Z,7.84
2022-11-29T07:01:54.964Z,7.84
2022-11-29T07:05:20.136Z,7.83
2022-11-29T07:08:45.348Z,7.82
2022-11-29T07:12:10.554Z,7.87
2022-11-29T07:15:35.765Z,7.88
2022-11-29T07:19:01.018Z,7.9
2022-11-29T07:22:26.187Z,7.93
2022-11-29T07:25:51.422Z,7.92
2022-11-29T07:29:16.615Z,7.92
2022-11-29T07:32:44.693Z,7.92
2022-11-29T07:36:07.050Z,7.93
2022-11-29T07:39:32.211Z,7.96
2022-11-29T07:42:57.399Z,8
2022-11-29T07:46:22.605Z,8.03
2022-11-29T07:49:47.775Z,8.05
2022-11-29T07:53:13.013Z,8.1
2022-11-29T07:56:38.199Z,8.16
2022-11-29T08:00:03.397Z,8.18
2022-11-29T08:03:28.591Z,8.22
2022-11-29T08:06:53.766Z,8.28
2022-11-29T08:10:19.001Z,8.33
2022-11-29T08:13:44.171Z,8.4
2022-11-29T08:17:09.393Z,8.45
2022-11-29T08:20:34.599Z,8.47
2022-11-29T08:23:59.814Z,8.47
2022-11-29T08:27:25.067Z,8.5
2022-11-29T08:30:50.232Z,8.54
2022-11-29T08:34:15.483Z,8.58
2022-11-29T08:37:40.677Z,8.59
2022-11-29T08:41:05.878Z,8.59
2022-11-29T08:44:31.106Z,8.59
2022-11-29T08:47:56.281Z,8.57
2022-11-29T08:51:21.457Z,8.54
2022-11-29T08:54:46.908Z,8.54
2022-11-29T08:58:11.872Z,8.57
2022-11-29T09:01:37.173Z,8.57
2022-11-29T09:05:02.287Z,8.52
2022-11-29T09:08:27.508Z,8.5
2022-11-29T09:11:52.696Z,8.5
2022-11-29T09:15:17.894Z,8.52
2022-11-29T09:18:47.268Z,8.54
2022-11-29T09:22:08.352Z,8.54
2022-11-29T09:25:33.559Z,8.58
2022-11-29T09:28:58.742Z,8.65
2022-11-29T09:32:23.934Z,8.69
2022-11-29T09:35:49.177Z,8.75
2022-11-29T09:39:14.336Z,8.78
2022-11-29T09:42:39.539Z,8.81
2022-11-29T09:46:04.783Z,8.84
2022-11-29T09:49:29.993Z,8.86
2022-11-29T09:52:55.209Z,8.91
2022-11-29T09:56:20.393Z,8.92
2022-11-29T09:59:45.608Z,8.94
2022-11-29T10:03:10.825Z,8.93
2022-11-29T10:06:36.050Z,8.95
2022-11-29T10:10:01.282Z,8.98
2022-11-29T10:13:26.474Z,9.02
2022-11-29T10:16:51.726Z,9.08
2022-11-29T10:20:16.907Z,9.14
2022-11-29T10:23:42.137Z,9.19
2022-11-29T10:27:07.383Z,9.2
2022-11-29T10:30:32.634Z,9.19
2022-11-29T10:33:57.877Z,9.2
2022-11-29T10:37:23.086Z,9.2
2022-11-29T10:40:48.297Z,9.21
2022-11-29T10:44:13.580Z,9.22
2022-11-29T10:47:38.759Z,9.24
2022-11-29T10:51:03.962Z,9.23
2022-11-29T10:54:29.204Z,9.26
2022-11-29T10:57:54.433Z,9.26
2022-11-29T11:01:19.740Z,9.29
2022-11-29T11:04:44.995Z,9.27
2022-11-29T11:08:10.078Z,9.29
2022-11-29T11:11:35.299Z,9.29
2022-11-29T11:15:00.519Z,9.33
2022-11-29T11:18:25.755Z,9.32
2022-11-29T11:21:50.950Z,9.3
2022-11-29T11:25:16.160Z,9.21
2022-11-29T11:28:41.384Z,9.21
2022-11-29T11:32:06.605Z,9.2
2022-11-29T11:35:31.865Z,9.17
2022-11-29T11:38:57.078Z,9.18
2022-11-29T11:42:22.311Z,9.19
2022-11-29T11:45:47.619Z,9.16
2022-11-29T11:49:12.773Z,9.18
2022-11-29T11:52:40.650Z,9.2
2022-11-29T11:56:03.214Z,9.2
2022-11-29T11:59:28.435Z,9.22
2022-11-29T12:02:53.699Z,9.25
2022-11-29T12:06:18.945Z,9.27
2022-11-29T12:09:44.199Z,9.29
2022-11-29T12:13:09.405Z,9.3
2022-11-29T12:16:34.638Z,9.27
2022-11-29T12:19:59.862Z,9.22
2022-11-29T12:23:25.085Z,9.18
2022-11-29T12:26:58.715Z,9.16
2022-11-29T12:30:15.543Z,9.19
2022-11-29T12:33:40.768Z,9.19
2022-11-29T12:37:05.999Z,9.13
2022-11-29T12:40:31.204Z,9.09
2022-11-29T12:43:56.476Z,9.04
2022-11-29T12:47:35.519Z,9.04
2022-11-29T12:50:46.837Z,8.99
2022-11-29T12:54:12.046Z,9.01
2022-11-29T12:57:37.291Z,9.07
2022-11-29T13:01:02.548Z,9.12
2022-11-29T13:04:27.750Z,9.17
2022-11-29T13:07:53.012Z,9.18
2022-11-29T13:11:18.201Z,9.19
2022-11-29T13:14:44.156Z,9.21
2022-11-29T13:18:08.652Z,9.25
2022-11-29T13:21:33.841Z,9.29
2022-11-29T13:24:59.050Z,9.3
2022-11-29T13:28:24.280Z,9.34
2022-11-29T13:31:49.514Z,9.39
2022-11-29T13:35:14.837Z,9.43
2022-11-29T13:38:39.949Z,9.44
2022-11-29T13:42:05.156Z,9.42
2022-11-29T13:45:30.369Z,9.39
2022-11-29T13:48:55.624Z,9.39
2022-11-29T13:52:20.884Z,9.38
2022-11-29T13:55:46.078Z,9.37
2022-11-29T13:59:11.295Z,9.38
2022-11-29T14:02:36.558Z,9.36
2022-11-29T14:06:01.778Z,9.36
2022-11-29T14:09:27.036Z,9.26
2022-11-29T14:12:52.223Z,9.2
2022-11-29T14:16:17.459Z,9.15
2022-11-29T14:19:42.672Z,9.1
2022-11-29T14:23:07.922Z,9.02
2022-11-29T14:26:33.156Z,8.99
2022-11-29T14:29:58.380Z,8.97
2022-11-29T15:03:55.882Z,6.68
2022-11-29T15:07:21.168Z,7.67
2022-11-29T15:10:46.481Z,7.92
2022-11-29T15:14:11.771Z,8.13
2022-11-29T15:17:37.153Z,8.28
2022-11-29T15:21:02.483Z,8.42
2022-11-29T15:24:28.831Z,8.52
2022-11-29T15:27:53.062Z,8.59
2022-11-29T15:31:18.478Z,8.66
2022-11-29T15:34:43.999Z,8.72
2022-11-29T15:38:09.090Z,8.81
2022-11-29T15:41:34.692Z,8.86
2022-11-29T15:44:59.728Z,8.91
2022-11-29T15:48:25.111Z,8.97
2022-11-29T15:51:50.381Z,9.01
2022-11-29T15:55:15.740Z,9.07
2022-11-29T15:58:40.980Z,9.11
2022-11-29T16:02:06.350Z,9.14
2022-11-29T16:05:31.612Z,9.17
2022-11-29T16:08:56.958Z,9.2
2022-11-29T16:12:22.322Z,9.23
2022-11-29T16:15:47.706Z,9.24
2022-11-29T16:19:13.004Z,9.23
2022-11-29T16:22:38.328Z,9.23
2022-11-29T16:26:03.611Z,9.23
2022-11-29T16:29:29.115Z,9.24
2022-11-29T16:32:54.406Z,9.24
2022-11-29T16:36:19.778Z,9.24
2022-11-29T16:39:45.097Z,9.24
2022-11-29T16:43:10.431Z,9.25
2022-11-29T16:46:35.799Z,9.24
2022-11-29T16:50:01.026Z,9.24
2022-11-29T16:53:26.375Z,9.22
2022-11-29T16:56:51.680Z,9.21
2022-11-29T17:00:16.972Z,9.21
2022-11-29T17:03:42.286Z,9.2
2022-11-29T17:07:07.508Z,9.19
2022-11-29T17:10:32.746Z,9.15
2022-11-29T17:13:58.039Z,9.15
2022-11-29T17:17:23.364Z,9.15
2022-11-29T17:20:48.716Z,9.13
2022-11-29T17:24:14.009Z,9.1
2022-11-29T17:27:39.284Z,9.09
2022-11-29T17:31:04.539Z,9.06
2022-11-29T17:34:29.835Z,9.05
2022-11-29T17:37:55.150Z,9.02
2022-11-29T17:41:20.372Z,9
2022-11-29T17:44:45.612Z,8.99
2022-11-29T17:48:10.951Z,9.01
2022-11-29T17:51:52.920Z,9.01
2022-11-29T17:55:01.471Z,9.02
2022-11-29T17:58:26.763Z,9.03
2022-11-29T18:01:52.097Z,9.04
2022-11-29T18:05:17.332Z,9.04
2022-11-29T18:08:42.599Z,9.02
2022-11-29T18:12:07.874Z,9.03
2022-11-29T18:15:33.962Z,9.03
2022-11-29T18:18:59.245Z,9.04
2022-11-29T18:22:24.569Z,9.06
2022-11-29T18:25:49.890Z,9.07
2022-11-29T18:29:15.187Z,9.08
2022-11-29T18:32:40.473Z,9.07
2022-11-29T18:36:05.767Z,9.1
2022-11-29T18:39:31.079Z,9.11
2022-11-29T18:42:56.361Z,9.13
2022-11-29T18:46:21.807Z,9.14
2022-11-29T18:49:47.029Z,9.15
2022-11-29T18:53:12.270Z,9.17
2022-11-29T18:56:37.497Z,9.18
2022-11-29T19:00:02.716Z,9.2
2022-11-29T19:03:28.004Z,9.23
2022-11-29T19:06:53.211Z,9.22
2022-11-29T19:10:18.484Z,9.23
2022-11-29T19:13:43.731Z,9.23
2022-11-29T19:17:08.997Z,9.21
2022-11-29T19:20:34.641Z,9.19
2022-11-29T19:23:59.529Z,9.17
2022-11-29T19:27:24.793Z,9.17
2022-11-29T19:30:50.118Z,9.16
2022-11-29T19:34:15.351Z,9.16
2022-11-29T19:37:40.626Z,9.17
2022-11-29T19:41:05.908Z,9.18
2022-11-29T19:44:42.994Z,9.19
2022-11-29T19:47:57.042Z,9.19
2022-11-29T19:51:22.300Z,9.16
2022-11-29T19:54:47.581Z,9.16
2022-11-29T19:58:12.803Z,9.16
2022-11-29T20:01:41.147Z,9.16
2022-11-29T20:05:03.323Z,9.16
2022-11-29T20:08:28.589Z,9.16
2022-11-29T20:11:53.881Z,9.13
2022-11-29T20:15:19.095Z,9.12
2022-11-29T20:18:48.903Z,9.14
2022-11-29T20:22:09.654Z,9.13
2022-11-29T20:25:34.898Z,9.12
2022-11-29T20:29:00.166Z,9.11
2022-11-29T20:32:25.391Z,9.1
2022-11-29T20:35:50.680Z,9.07
2022-11-29T20:39:15.925Z,9.04
2022-11-29T20:42:41.153Z,9.03
2022-11-29T20:46:06.425Z,9.04
2022-11-29T20:49:31.613Z,9.03
2022-11-29T20:52:56.857Z,9.02
2022-11-29T20:56:22.098Z,9
2022-11-29T20:59:47.624Z,9
2022-11-29T21:03:12.662Z,9.01
2022-11-29T21:06:37.816Z,8.97
2022-11-29T21:10:03.066Z,8.91
2022-11-29T21:13:28.272Z,8.83
2022-11-29T21:16:53.506Z,8.8
2022-11-29T21:20:18.759Z,8.76
2022-11-29T21:23:43.935Z,8.75
2022-11-29T21:27:09.134Z,8.7
2022-11-29T21:30:34.350Z,8.71
2022-11-29T21:33:59.583Z,8.71
2022-11-29T21:37:24.829Z,8.73
2022-11-29T21:40:50.030Z,8.74
2022-11-29T21:44:15.236Z,8.73
2022-11-29T21:47:40.445Z,8.71
2022-11-29T21:51:05.676Z,8.68
2022-11-29T21:54:30.949Z,8.67
2022-11-29T21:57:56.137Z,8.62
2022-11-29T22:01:21.458Z,8.59
2022-11-29T22:04:46.891Z,8.57
2022-11-29T22:08:11.832Z,8.56
2022-11-29T22:11:37.112Z,8.53
2022-11-29T22:15:02.300Z,8.53
2022-11-29T22:18:27.533Z,8.55
2022-11-29T22:21:52.745Z,8.55
2022-11-29T22:25:17.960Z,8.56
2022-11-29T22:28:43.211Z,8.6
2022-11-29T22:32:08.385Z,8.63
2022-11-29T22:35:33.616Z,8.63
2022-11-29T22:38:58.851Z,8.63
2022-11-29T22:42:24.072Z,8.63
2022-11-29T22:45:49.338Z,8.63
2022-11-29T22:49:14.536Z,8.64
2022-11-29T22:52:39.741Z,8.63
2022-11-29T22:56:05.001Z,8.6
2022-11-29T22:59:30.214Z,8.58
2022-11-29T23:02:55.439Z,8.57
2022-11-29T23:06:20.626Z,8.58
2022-11-29T23:09:45.830Z,8.52
2022-11-29T23:13:11.038Z,8.47
2022-11-29T23:16:36.414Z,8.4
2022-11-29T23:20:01.568Z,8.35
2022-11-29T23:23:26.761Z,8.29
2022-11-29T23:26:51.973Z,8.28
2022-11-29T23:30:17.231Z,8.24
2022-11-29T23:33:42.429Z,8.21
2022-11-29T23:37:07.698Z,8.22
2022-11-29T23:40:32.887Z,8.24
2022-11-29T23:43:58.125Z,8.28
2022-11-29T23:47:23.337Z,8.3
2022-11-29T23:50:48.561Z,8.32
2022-11-29T23:54:13.804Z,8.34
2022-11-29T23:57:38.985Z,8.33
